createdAt,value
2018-12-13T00:01:01.198Z,69.78
2018-12-13T00:03:29.830Z,69.84
2018-12-13T00:05:58.446Z,69.69
2018-12-13T00:08:27.023Z,70.19
2018-12-13T00:10:55.638Z,69.68
2018-12-13T00:13:24.331Z,69.17
2018-12-13T00:15:52.976Z,69.20
2018-12-13T00:18:21.600Z,68.61
2018-12-13T00:20:50.250Z,69.81
2018-12-13T00:23:18.900Z,69.07
2018-12-13T00:25:47.534Z,69.77
2018-12-13T00:28:16.202Z,69.83
2018-12-13T00:30:44.838Z,69.88
2018-12-13T00:33:13.554Z,69.81
2018-12-13T00:35:42.330Z,69.51
2018-12-13T00:39:14.131Z,69.32
2018-12-13T00:41:43.034Z,69.52
2018-12-13T00:44:12.478Z,70.22
2018-12-13T00:46:41.074Z,70.79
2018-12-13T00:49:10.406Z,70.62
2018-12-13T00:51:39.955Z,70.63
2018-12-13T00:54:08.498Z,70.47
2018-12-13T00:56:37.157Z,70.33
2018-12-13T00:59:05.820Z,70.14
2018-12-13T01:01:34.434Z,70.58
2018-12-13T01:04:03.081Z,70.60
2018-12-13T01:06:32.681Z,70.60
2018-12-13T01:09:01.304Z,70.69
2018-12-13T01:11:29.865Z,70.17
2018-12-13T01:13:58.547Z,70.50
2018-12-13T01:16:27.222Z,71.18
2018-12-13T01:18:55.883Z,70.93
2018-12-13T01:21:24.517Z,70.58
2018-12-13T01:23:53.162Z,70.78
2018-12-13T01:26:21.773Z,70.72
2018-12-13T01:28:50.381Z,70.83
2018-12-13T01:31:19.031Z,70.87
2018-12-13T01:33:47.647Z,71.06
2018-12-13T01:36:16.259Z,71.47
2018-12-13T01:38:44.854Z,71.14
2018-12-13T01:41:13.499Z,70.89
2018-12-13T01:43:42.095Z,70.99
2018-12-13T01:46:10.679Z,70.74
2018-12-13T01:48:39.315Z,70.66
2018-12-13T01:51:07.928Z,70.60
2018-12-13T01:53:36.538Z,70.92
2018-12-13T01:56:05.157Z,70.63
2018-12-13T01:58:33.757Z,70.53
2018-12-13T02:01:02.386Z,69.99
2018-12-13T02:03:31.037Z,70.37
2018-12-13T02:05:59.695Z,70.36
2018-12-13T02:08:28.335Z,70.32
2018-12-13T02:10:56.915Z,70.79
2018-12-13T02:13:26.276Z,69.19
2018-12-13T02:15:54.912Z,69.94
2018-12-13T02:18:23.587Z,69.92
2018-12-13T02:20:52.211Z,69.15
2018-12-13T02:23:20.801Z,68.24
2018-12-13T02:25:49.521Z,68.11
2018-12-13T02:28:18.999Z,68.01
2018-12-13T02:30:47.659Z,68.48
2018-12-13T02:33:16.213Z,69.40
2018-12-13T02:35:44.814Z,69.18
2018-12-13T02:38:13.451Z,69.31
2018-12-13T02:40:42.017Z,69.48
2018-12-13T02:43:10.657Z,69.89
2018-12-13T02:45:39.265Z,70.13
2018-12-13T02:48:07.913Z,70.48
2018-12-13T02:50:36.567Z,70.68
2018-12-13T02:53:05.141Z,70.41
2018-12-13T02:55:33.750Z,70.52
2018-12-13T02:58:02.380Z,70.37
2018-12-13T03:00:31.005Z,70.56
2018-12-13T03:02:59.630Z,70.23
2018-12-13T03:05:28.275Z,70.17
2018-12-13T03:07:56.882Z,70.20
2018-12-13T03:10:26.402Z,69.77
2018-12-13T03:12:55.548Z,70.00
2018-12-13T03:15:24.175Z,69.59
2018-12-13T03:17:52.828Z,69.27
2018-12-13T03:20:21.455Z,69.54
2018-12-13T03:22:50.068Z,69.88
2018-12-13T03:25:18.678Z,69.35
2018-12-13T03:27:47.273Z,69.53
2018-12-13T03:30:15.906Z,70.00
2018-12-13T03:32:44.805Z,69.47
2018-12-13T03:35:13.452Z,70.46
2018-12-13T03:37:42.049Z,70.13
2018-12-13T03:40:10.795Z,70.55
2018-12-13T03:42:40.972Z,69.83
2018-12-13T03:45:09.646Z,70.75
2018-12-13T03:47:38.230Z,70.70
2018-12-13T03:50:06.917Z,70.84
2018-12-13T03:52:35.562Z,70.56
2018-12-13T03:55:04.469Z,70.80
2018-12-13T03:57:33.135Z,70.59
2018-12-13T04:00:01.755Z,71.00
2018-12-13T04:02:30.421Z,70.40
2018-12-13T04:04:59.304Z,70.28
2018-12-13T04:07:28.021Z,70.09
2018-12-13T04:09:56.641Z,70.53
2018-12-13T04:12:25.261Z,70.06
2018-12-13T04:14:53.797Z,70.30
2018-12-13T04:17:22.444Z,70.69
2018-12-13T04:19:51.171Z,71.38
2018-12-13T04:22:19.777Z,72.67
2018-12-13T04:24:48.419Z,72.83
2018-12-13T04:27:17.014Z,72.50
2018-12-13T04:29:45.580Z,72.31
2018-12-13T04:32:14.210Z,72.09
2018-12-13T04:34:42.845Z,72.62
2018-12-13T04:37:11.490Z,72.77
2018-12-13T04:39:40.113Z,72.63
2018-12-13T04:42:08.721Z,72.72
2018-12-13T04:44:37.944Z,72.25
2018-12-13T04:47:06.819Z,72.33
2018-12-13T04:49:36.322Z,72.27
2018-12-13T04:52:04.971Z,72.15
2018-12-13T04:54:33.615Z,72.24
2018-12-13T04:57:02.276Z,72.26
2018-12-13T04:59:30.970Z,72.67
2018-12-13T05:01:59.617Z,73.01
2018-12-13T05:04:28.996Z,73.49
2018-12-13T05:06:57.738Z,73.47
2018-12-13T05:09:26.443Z,73.97
2018-12-13T05:11:55.004Z,73.77
2018-12-13T05:14:23.865Z,73.62
2018-12-13T05:16:52.722Z,74.03
2018-12-13T05:19:21.416Z,73.45
2018-12-13T05:21:50.075Z,73.61
2018-12-13T05:24:18.850Z,74.03
2018-12-13T05:26:48.045Z,74.80
2018-12-13T05:29:16.661Z,74.87
2018-12-13T05:31:45.261Z,74.62
2018-12-13T05:34:13.881Z,75.18
2018-12-13T05:36:42.494Z,74.46
2018-12-13T05:39:11.096Z,74.45
2018-12-13T05:41:39.827Z,74.35
2018-12-13T05:44:08.524Z,74.18
2018-12-13T05:46:37.265Z,74.60
2018-12-13T05:49:05.892Z,74.27
2018-12-13T05:51:34.568Z,74.07
2018-12-13T05:54:03.292Z,74.26
2018-12-13T05:56:31.961Z,74.48
2018-12-13T05:59:00.579Z,74.17
2018-12-13T06:01:29.319Z,73.91
2018-12-13T06:03:57.969Z,73.45
2018-12-13T06:06:26.566Z,73.97
2018-12-13T06:08:55.205Z,73.64
2018-12-13T06:11:23.893Z,73.71
2018-12-13T06:13:52.489Z,73.39
2018-12-13T06:16:21.116Z,73.31
2018-12-13T06:18:49.754Z,72.91
2018-12-13T06:21:18.364Z,73.13
2018-12-13T06:23:47.036Z,73.39
2018-12-13T06:26:15.640Z,73.88
2018-12-13T06:28:44.290Z,74.17
2018-12-13T06:31:13.007Z,73.70
2018-12-13T06:33:41.662Z,73.09
2018-12-13T06:36:10.317Z,72.61
2018-12-13T06:38:39.001Z,73.28
2018-12-13T06:41:07.633Z,73.04
2018-12-13T06:43:36.338Z,73.41
2018-12-13T06:46:04.961Z,73.22
2018-12-13T06:48:33.607Z,72.84
2018-12-13T06:51:02.290Z,72.54
2018-12-13T06:53:30.952Z,72.60
2018-12-13T06:56:00.214Z,72.49
2018-12-13T06:58:28.828Z,72.03
2018-12-13T07:00:57.463Z,71.92
2018-12-13T07:03:26.055Z,71.61
2018-12-13T07:05:54.803Z,70.52
2018-12-13T07:08:23.472Z,70.12
2018-12-13T07:10:52.137Z,69.56
2018-12-13T07:13:20.792Z,69.36
2018-12-13T07:15:49.506Z,69.02
2018-12-13T07:18:18.138Z,68.26
2018-12-13T07:20:46.801Z,67.71
2018-12-13T07:23:15.454Z,67.84
2018-12-13T07:25:44.178Z,67.13
2018-12-13T07:28:12.852Z,65.99
2018-12-13T07:30:41.504Z,65.85
2018-12-13T07:33:10.183Z,65.48
2018-12-13T07:35:38.874Z,65.31
2018-12-13T07:38:14.091Z,65.03
2018-12-13T07:40:38.394Z,65.11
2018-12-13T07:43:06.972Z,64.75
2018-12-13T07:45:35.582Z,64.71
2018-12-13T07:48:04.257Z,64.95
2018-12-13T07:50:32.923Z,64.91
2018-12-13T07:53:01.627Z,64.42
2018-12-13T07:55:30.252Z,63.13
2018-12-13T07:57:58.907Z,63.09
2018-12-13T08:00:27.555Z,62.68
2018-12-13T08:02:56.294Z,63.32
2018-12-13T08:05:24.971Z,63.58
2018-12-13T08:07:53.622Z,63.45
2018-12-13T08:10:22.250Z,62.64
2018-12-13T08:12:50.961Z,62.66
2018-12-13T08:15:19.537Z,63.28
2018-12-13T08:17:48.115Z,64.01
2018-12-13T08:20:16.774Z,62.73
2018-12-13T08:22:45.437Z,62.33
2018-12-13T08:25:14.471Z,62.96
2018-12-13T08:27:43.062Z,62.68
2018-12-13T08:30:12.006Z,62.10
2018-12-13T08:32:40.641Z,61.79
2018-12-13T08:35:09.351Z,61.51
2018-12-13T08:37:37.933Z,61.62
2018-12-13T08:40:07.260Z,61.39
2018-12-13T08:42:35.947Z,60.90
2018-12-13T08:45:04.891Z,60.62
2018-12-13T08:47:33.453Z,61.13
2018-12-13T08:50:02.118Z,61.01
2018-12-13T08:52:30.753Z,60.45
2018-12-13T08:54:59.488Z,60.00
2018-12-13T08:57:28.112Z,59.61
2018-12-13T08:59:56.724Z,57.98
2018-12-13T09:02:25.355Z,56.32
2018-12-13T09:04:54.083Z,54.22
2018-12-13T09:07:22.750Z,52.31
2018-12-13T09:09:51.396Z,51.03
2018-12-13T09:12:20.137Z,50.24
2018-12-13T09:14:48.888Z,48.85
2018-12-13T09:17:17.572Z,48.87
2018-12-13T09:19:46.214Z,48.61
2018-12-13T09:22:14.785Z,49.82
2018-12-13T09:24:43.447Z,49.45
2018-12-13T09:27:12.086Z,49.89
2018-12-13T09:29:40.772Z,49.14
2018-12-13T09:32:09.434Z,48.26
2018-12-13T09:34:38.043Z,48.40
2018-12-13T09:37:06.935Z,49.02
2018-12-13T09:39:35.590Z,48.34
2018-12-13T09:42:04.739Z,47.48
2018-12-13T09:44:33.418Z,47.48
2018-12-13T09:47:02.125Z,47.79
2018-12-13T09:49:30.850Z,47.52
2018-12-13T09:51:59.593Z,46.61
2018-12-13T09:54:28.725Z,45.63
2018-12-13T09:56:57.392Z,46.25
2018-12-13T09:59:26.062Z,45.94
2018-12-13T10:01:54.825Z,46.11
2018-12-13T10:04:23.471Z,44.98
2018-12-13T10:06:52.101Z,45.10
2018-12-13T10:09:20.916Z,45.38
2018-12-13T10:11:49.582Z,44.82
2018-12-13T10:14:18.270Z,45.12
2018-12-13T10:16:47.005Z,43.86
2018-12-13T10:19:15.658Z,45.10
2018-12-13T10:21:44.423Z,44.91
2018-12-13T10:24:13.092Z,43.97
2018-12-13T10:26:41.878Z,43.55
2018-12-13T10:29:10.500Z,43.30
2018-12-13T10:31:39.098Z,43.60
2018-12-13T10:34:07.867Z,43.31
2018-12-13T10:36:36.525Z,42.56
2018-12-13T10:39:08.473Z,42.23
2018-12-13T10:41:37.169Z,42.94
2018-12-13T10:44:05.810Z,42.46
2018-12-13T10:46:34.426Z,42.42
2018-12-13T10:49:03.128Z,42.57
2018-12-13T10:51:31.717Z,42.58
2018-12-13T10:54:00.376Z,41.17
2018-12-13T10:56:29.044Z,41.27
2018-12-13T10:58:57.848Z,40.56
2018-12-13T11:01:31.615Z,40.34
2018-12-13T11:04:00.262Z,39.89
2018-12-13T11:06:29.156Z,39.47
2018-12-13T11:08:59.531Z,39.89
2018-12-13T11:11:28.537Z,38.66
2018-12-13T11:13:57.207Z,38.83
2018-12-13T11:16:25.851Z,39.21
2018-12-13T11:18:54.513Z,38.91
2018-12-13T11:21:23.209Z,38.76
2018-12-13T11:23:51.910Z,37.96
2018-12-13T11:26:20.614Z,38.25
2018-12-13T11:30:01.750Z,37.97
2018-12-13T11:32:31.375Z,37.33
2018-12-13T11:35:00.158Z,37.16
2018-12-13T11:37:28.739Z,37.32
2018-12-13T11:39:57.385Z,37.71
2018-12-13T11:42:26.065Z,37.79
2018-12-13T11:44:54.652Z,35.76
2018-12-13T11:47:23.299Z,35.92
2018-12-13T11:49:51.960Z,36.83
2018-12-13T11:52:20.628Z,36.32
2018-12-13T11:54:49.442Z,36.94
2018-12-13T11:57:18.063Z,36.53
2018-12-13T11:59:46.772Z,36.28
2018-12-13T12:02:15.535Z,35.98
2018-12-13T12:04:44.210Z,34.91
2018-12-13T12:07:12.863Z,35.14
2018-12-13T12:09:41.541Z,34.55
2018-12-13T12:12:10.281Z,35.00
2018-12-13T12:14:38.847Z,34.37
2018-12-13T12:17:07.612Z,35.52
2018-12-13T12:19:36.279Z,35.19
2018-12-13T12:22:04.942Z,34.48
2018-12-13T12:24:33.642Z,34.74
2018-12-13T12:27:02.276Z,34.88
2018-12-13T12:29:30.916Z,34.85
2018-12-13T12:31:59.564Z,34.94
2018-12-13T12:34:28.192Z,35.23
2018-12-13T12:36:56.848Z,34.41
2018-12-13T12:39:25.538Z,34.12
2018-12-13T12:41:54.137Z,33.55
2018-12-13T12:44:22.826Z,33.30
2018-12-13T12:46:51.447Z,33.28
2018-12-13T12:49:20.086Z,34.01
2018-12-13T12:51:49.017Z,35.21
2018-12-13T12:54:17.657Z,34.66
2018-12-13T12:56:46.327Z,34.83
2018-12-13T12:59:15.016Z,33.39
2018-12-13T13:01:43.633Z,34.48
2018-12-13T13:04:12.261Z,34.62
2018-12-13T13:06:40.882Z,35.27
2018-12-13T13:09:09.874Z,35.58
2018-12-13T13:11:38.819Z,35.99
2018-12-13T13:14:07.429Z,36.35
2018-12-13T13:16:36.031Z,37.05
2018-12-13T13:19:04.727Z,37.76
2018-12-13T13:21:33.359Z,37.96
2018-12-13T13:24:02.024Z,37.95
2018-12-13T13:26:30.634Z,37.27
2018-12-13T13:28:59.252Z,37.83
2018-12-13T13:31:27.867Z,37.64
2018-12-13T13:33:56.517Z,38.23
2018-12-13T13:36:25.184Z,39.55
2018-12-13T13:38:54.634Z,38.54
2018-12-13T13:41:23.506Z,39.07
2018-12-13T13:43:52.098Z,38.79
2018-12-13T13:46:20.743Z,39.06
2018-12-13T13:48:49.360Z,38.38
2018-12-13T13:51:18.254Z,38.68
2018-12-13T13:53:47.051Z,40.28
2018-12-13T13:56:15.688Z,40.15
2018-12-13T13:58:44.313Z,39.58
2018-12-13T14:01:12.994Z,40.25
2018-12-13T14:03:41.624Z,40.38
2018-12-13T14:06:10.408Z,40.67
2018-12-13T14:08:39.143Z,40.63
2018-12-13T14:11:08.525Z,42.01
2018-12-13T14:13:37.100Z,41.81
2018-12-13T14:16:05.933Z,42.13
2018-12-13T14:18:34.729Z,42.54
2018-12-13T14:21:03.396Z,43.24
2018-12-13T14:23:31.970Z,43.09
2018-12-13T14:26:00.817Z,43.70
2018-12-13T14:28:29.474Z,44.88
2018-12-13T14:30:58.158Z,43.90
2018-12-13T14:33:26.817Z,45.33
2018-12-13T14:35:55.442Z,45.83
2018-12-13T14:38:26.052Z,46.25
2018-12-13T14:40:54.703Z,46.40
2018-12-13T14:43:23.348Z,46.35
2018-12-13T14:45:53.705Z,46.47
2018-12-13T14:48:26.680Z,45.63
2018-12-13T14:50:55.383Z,46.43
2018-12-13T14:53:24.349Z,46.37
2018-12-13T14:55:53.065Z,46.11
2018-12-13T14:58:22.407Z,46.20
2018-12-13T15:00:51.150Z,47.00
2018-12-13T15:03:19.790Z,47.46
2018-12-13T15:05:48.421Z,47.81
2018-12-13T15:08:17.066Z,47.12
2018-12-13T15:10:45.738Z,47.37
2018-12-13T15:13:14.287Z,48.31
2018-12-13T15:15:42.937Z,48.20
2018-12-13T15:18:11.925Z,48.25
2018-12-13T15:20:40.627Z,48.43
2018-12-13T15:23:09.220Z,48.96
2018-12-13T15:28:13.388Z,47.74
2018-12-13T15:30:42.085Z,47.87
2018-12-13T15:33:10.750Z,48.16
2018-12-13T15:35:39.390Z,48.05
2018-12-13T15:38:08.023Z,47.36
2018-12-13T15:40:37.720Z,48.15
2018-12-13T15:43:06.383Z,48.25
2018-12-13T15:45:35.172Z,47.98
2018-12-13T15:48:03.808Z,47.74
2018-12-13T15:50:32.475Z,47.48
2018-12-13T15:53:01.335Z,47.96
2018-12-13T15:55:30.119Z,48.37
2018-12-13T15:57:58.735Z,48.18
2018-12-13T16:00:27.402Z,48.46
2018-12-13T16:02:56.609Z,48.61
2018-12-13T16:05:25.304Z,49.13
2018-12-13T16:07:53.907Z,49.07
2018-12-13T16:10:23.004Z,49.18
2018-12-13T16:12:51.592Z,49.27
2018-12-13T16:15:20.295Z,49.53
2018-12-13T16:17:49.056Z,49.30
2018-12-13T16:20:17.665Z,49.96
2018-12-13T16:22:46.293Z,49.38
2018-12-13T16:25:15.043Z,49.80
2018-12-13T16:27:43.920Z,48.87
2018-12-13T16:30:12.727Z,48.67
2018-12-13T16:32:41.737Z,49.29
2018-12-13T16:35:10.365Z,48.87
2018-12-13T16:37:39.001Z,48.76
2018-12-13T16:40:10.488Z,48.41
2018-12-13T16:42:38.735Z,49.40
2018-12-13T16:45:07.382Z,48.76
2018-12-13T16:47:36.687Z,50.05
2018-12-13T16:50:05.667Z,50.06
2018-12-13T16:52:34.404Z,49.48
2018-12-13T16:55:03.196Z,50.25
2018-12-13T16:57:31.882Z,49.86
2018-12-13T17:00:00.500Z,49.68
2018-12-13T17:02:29.115Z,49.95
2018-12-13T17:05:03.381Z,49.00
2018-12-13T17:07:28.456Z,49.48
2018-12-13T17:09:57.113Z,49.83
2018-12-13T17:12:25.776Z,50.25
2018-12-13T17:14:54.498Z,50.85
2018-12-13T17:17:23.080Z,50.85
2018-12-13T17:19:51.828Z,50.39
2018-12-13T17:22:20.893Z,51.25
2018-12-13T17:24:49.568Z,51.00
2018-12-13T17:27:18.242Z,50.86
2018-12-13T17:29:46.893Z,50.62
2018-12-13T17:32:15.553Z,51.45
2018-12-13T17:34:44.178Z,52.42
2018-12-13T17:37:12.719Z,52.35
2018-12-13T17:39:41.426Z,52.85
2018-12-13T17:42:10.090Z,51.83
2018-12-13T17:44:38.753Z,51.89
2018-12-13T17:47:07.453Z,52.83
2018-12-13T17:49:36.143Z,51.85
2018-12-13T17:52:04.925Z,51.79
2018-12-13T17:54:33.680Z,51.87
2018-12-13T17:57:02.324Z,51.81
2018-12-13T17:59:30.963Z,52.80
2018-12-13T18:02:00.580Z,52.87
2018-12-13T18:04:29.218Z,52.82
2018-12-13T18:06:57.855Z,52.84
2018-12-13T18:09:26.451Z,53.04
2018-12-13T18:11:55.182Z,54.13
2018-12-13T18:14:24.689Z,54.34
2018-12-13T18:16:53.264Z,53.96
2018-12-13T18:19:21.953Z,54.23
2018-12-13T18:21:50.622Z,54.41
2018-12-13T18:24:19.269Z,53.94
2018-12-13T18:26:47.917Z,53.64
2018-12-13T18:29:16.604Z,54.19
2018-12-13T18:31:45.286Z,54.76
2018-12-13T18:34:14.563Z,54.10
2018-12-13T18:36:43.226Z,54.40
2018-12-13T18:39:12.071Z,55.05
2018-12-13T18:41:40.712Z,54.98
2018-12-13T18:44:09.368Z,55.14
2018-12-13T18:46:38.115Z,54.47
2018-12-13T18:49:06.779Z,55.27
2018-12-13T18:51:35.525Z,54.48
2018-12-13T18:54:04.313Z,55.00
2018-12-13T18:56:32.893Z,54.50
2018-12-13T18:59:01.465Z,54.96
2018-12-13T19:01:30.094Z,55.62
2018-12-13T19:03:58.723Z,55.31
2018-12-13T19:06:27.695Z,54.20
2018-12-13T19:08:56.423Z,54.80
2018-12-13T19:11:25.269Z,53.67
2018-12-13T19:13:53.918Z,54.08
2018-12-13T19:16:22.781Z,53.94
2018-12-13T19:18:51.832Z,53.90
2018-12-13T19:21:20.406Z,53.86
2018-12-13T19:23:49.211Z,54.24
2018-12-13T19:26:17.829Z,54.52
2018-12-13T19:28:46.385Z,54.76
2018-12-13T19:31:15.165Z,54.86
2018-12-13T19:33:43.776Z,55.42
2018-12-13T19:36:12.746Z,55.48
2018-12-13T19:38:41.429Z,56.11
2018-12-13T19:41:10.018Z,55.95
2018-12-13T19:43:38.791Z,55.44
2018-12-13T19:46:08.281Z,54.45
2018-12-13T19:48:36.897Z,55.56
2018-12-13T19:51:05.911Z,55.55
2018-12-13T19:53:35.291Z,55.72
2018-12-13T19:56:04.204Z,57.22
2018-12-13T19:58:32.822Z,56.57
2018-12-13T20:01:01.620Z,56.85
2018-12-13T20:03:30.401Z,57.30
2018-12-13T20:05:59.076Z,56.51
2018-12-13T20:08:27.738Z,56.72
2018-12-13T20:10:56.347Z,56.29
2018-12-13T20:13:24.973Z,57.50
2018-12-13T20:15:53.617Z,56.67
2018-12-13T20:18:22.407Z,56.64
2018-12-13T20:20:51.143Z,57.43
2018-12-13T20:23:20.292Z,56.85
2018-12-13T20:25:48.960Z,57.36
2018-12-13T20:28:17.710Z,57.42
2018-12-13T20:30:46.543Z,56.73
2018-12-13T20:33:15.210Z,56.46
2018-12-13T20:35:43.917Z,55.83
2018-12-13T20:38:12.832Z,55.13
2018-12-13T20:40:41.519Z,55.85
2018-12-13T20:43:10.194Z,57.45
2018-12-13T20:45:39.021Z,57.83
2018-12-13T20:48:08.685Z,57.62
2018-12-13T20:50:37.487Z,57.13
2018-12-13T20:53:06.373Z,57.29
2018-12-13T20:55:34.970Z,57.39
2018-12-13T20:58:03.574Z,57.56
2018-12-13T21:00:32.378Z,56.83
2018-12-13T21:03:01.004Z,57.40
2018-12-13T21:05:30.507Z,57.23
2018-12-13T21:08:04.436Z,57.54
2018-12-13T21:10:33.392Z,58.29
2018-12-13T21:13:02.050Z,56.98
2018-12-13T21:15:33.575Z,56.91
2018-12-13T21:18:03.199Z,56.41
2018-12-13T21:20:32.638Z,56.41
2018-12-13T21:23:01.292Z,56.88
2018-12-13T21:25:29.962Z,56.07
2018-12-13T21:27:58.673Z,55.63
2018-12-13T21:30:27.263Z,56.87
2018-12-13T21:32:55.874Z,56.24
2018-12-13T21:35:24.491Z,55.95
2018-12-13T21:37:53.072Z,56.48
2018-12-13T21:40:21.765Z,55.78
2018-12-13T21:42:50.464Z,55.36
2018-12-13T21:46:22.296Z,55.97
2018-12-13T21:48:51.852Z,56.90
2018-12-13T21:51:21.109Z,56.47
2018-12-13T21:53:49.988Z,56.96
2018-12-13T21:56:18.653Z,56.31
2018-12-13T21:58:47.400Z,56.35
2018-12-13T22:01:16.104Z,56.72
2018-12-13T22:03:45.188Z,56.55
2018-12-13T22:06:13.932Z,55.86
2018-12-13T22:08:42.539Z,55.07
2018-12-13T22:11:12.703Z,55.24
2018-12-13T22:13:41.391Z,55.14
2018-12-13T22:16:10.137Z,53.77
2018-12-13T22:18:39.918Z,54.07
2018-12-13T22:21:08.608Z,54.77
2018-12-13T22:23:37.305Z,54.31
2018-12-13T22:26:05.965Z,53.81
2018-12-13T22:28:34.548Z,53.91
2018-12-13T22:31:04.323Z,53.52
2018-12-13T22:33:33.143Z,52.11
2018-12-13T22:36:01.793Z,53.03
2018-12-13T22:38:30.442Z,53.04
2018-12-13T22:40:59.052Z,53.59
2018-12-13T22:43:27.761Z,54.35
2018-12-13T22:45:56.343Z,54.26
2018-12-13T22:48:25.925Z,54.32
2018-12-13T22:50:55.565Z,54.87
2018-12-13T22:53:25.206Z,54.80
2018-12-13T22:55:53.933Z,55.14
2018-12-13T22:58:23.163Z,54.76
2018-12-13T23:00:51.788Z,55.88
2018-12-13T23:03:20.459Z,55.10
2018-12-13T23:05:49.105Z,54.87
2018-12-13T23:08:17.819Z,54.53
2018-12-13T23:10:46.366Z,54.09
2018-12-13T23:13:14.973Z,54.77
2018-12-13T23:15:43.598Z,54.68
2018-12-13T23:18:12.480Z,54.19
2018-12-13T23:20:41.174Z,53.68
2018-12-13T23:23:09.911Z,52.77
2018-12-13T23:25:38.588Z,53.11
2018-12-13T23:28:07.144Z,52.78
2018-12-13T23:30:36.314Z,53.42
2018-12-13T23:33:04.914Z,54.04
2018-12-13T23:35:33.509Z,54.24
2018-12-13T23:38:02.158Z,55.48
2018-12-13T23:40:30.860Z,55.68
2018-12-13T23:42:59.397Z,54.06
2018-12-13T23:45:27.942Z,55.01
2018-12-13T23:47:56.606Z,54.57
2018-12-13T23:50:25.140Z,55.45
2018-12-13T23:52:53.790Z,54.94
2018-12-13T23:55:22.393Z,55.87
2018-12-13T23:57:51.011Z,56.23
